createdAt,value
2023-03-28T00:00:25.757Z,32.80
2023-03-28T00:05:29.509Z,32.80
2023-03-28T00:10:32.691Z,32.80
2023-03-28T00:15:40.163Z,32.70
2023-03-28T00:20:44.463Z,32.70
2023-03-28T00:25:49.042Z,32.70
2023-03-28T00:30:53.247Z,32.70
2023-03-28T00:35:57.475Z,32.70
2023-03-28T00:41:01.059Z,32.50
2023-03-28T00:46:09.423Z,32.50
2023-03-28T00:51:14.763Z,32.60
2023-03-28T00:56:20.102Z,32.60
2023-03-28T01:01:24.538Z,32.70
2023-03-28T01:06:27.369Z,32.70
2023-03-28T01:11:30.857Z,32.70
2023-03-28T01:16:41.329Z,32.70
2023-03-28T01:22:21.873Z,32.60
2023-03-28T01:27:30.518Z,32.60
2023-03-28T01:33:18.437Z,32.70
2023-03-28T01:38:28.108Z,32.50
2023-03-28T01:43:42.415Z,32.60
2023-03-28T01:48:57.496Z,32.50
2023-03-28T01:54:06.172Z,32.60
2023-03-28T01:59:17.935Z,32.60
2023-03-28T02:04:23.142Z,32.70
2023-03-28T02:09:28.558Z,32.80
2023-03-28T02:14:37.319Z,32.90
2023-03-28T02:19:40.523Z,32.80
2023-03-28T02:24:50.405Z,32.80
2023-03-28T02:29:55.529Z,32.80
2023-03-28T02:34:58.393Z,32.80
2023-03-28T02:40:15.873Z,32.70
2023-03-28T02:45:46.646Z,32.70
2023-03-28T02:50:57.881Z,32.70
2023-03-28T02:56:06.830Z,32.60
2023-03-28T03:01:14.593Z,32.50
2023-03-28T03:06:17.984Z,32.50
2023-03-28T03:11:22.199Z,32.50
2023-03-28T03:16:25.037Z,32.40
2023-03-28T03:21:28.128Z,32.70
2023-03-28T03:26:32.953Z,32.80
2023-03-28T03:31:36.943Z,33.40
2023-03-28T03:36:40.533Z,32.80
2023-03-28T03:41:44.748Z,32.70
2023-03-28T03:46:47.672Z,32.60
2023-03-28T03:51:50.523Z,32.50
2023-03-28T03:56:54.736Z,32.40
2023-03-28T04:01:57.588Z,32.30
2023-03-28T04:07:02.309Z,32.20
2023-03-28T04:12:07.649Z,32.20
2023-03-28T04:17:13.613Z,32.20
2023-03-28T04:22:18.395Z,32.20
2023-03-28T04:27:26.277Z,32.30
2023-03-28T04:32:29.433Z,32.20
2023-03-28T04:37:32.519Z,32.10
2023-03-28T04:42:37.044Z,32.00
2023-03-28T04:47:40.217Z,32.10
2023-03-28T04:52:43.180Z,32.20
2023-03-28T04:57:47.335Z,32.20
2023-03-28T05:02:50.517Z,32.20
2023-03-28T05:07:53.374Z,32.00
2023-03-28T05:12:58.484Z,32.00
2023-03-28T05:18:01.385Z,31.80
2023-03-28T05:23:05.952Z,32.10
2023-03-28T05:28:10.491Z,32.00
2023-03-28T05:33:13.644Z,31.90
2023-03-28T05:38:16.830Z,32.30
2023-03-28T05:43:21.030Z,31.50
2023-03-28T05:48:23.818Z,31.20
2023-03-28T05:53:26.781Z,31.30
2023-03-28T05:58:31.684Z,31.10
2023-03-28T06:03:40.262Z,30.40
2023-03-28T06:08:43.236Z,30.50
2023-03-28T06:13:47.568Z,30.70
2023-03-28T06:18:50.403Z,30.50
2023-03-28T06:23:53.281Z,30.50
2023-03-28T06:28:57.475Z,30.60
2023-03-28T06:34:00.281Z,30.50
2023-03-28T06:39:03.210Z,30.60
2023-03-28T06:44:07.553Z,30.80
2023-03-28T06:49:10.594Z,30.90
2023-03-28T06:54:13.389Z,30.90
2023-03-28T06:59:17.724Z,31.00
2023-03-28T07:04:20.611Z,31.10
2023-03-28T07:09:23.417Z,31.10
2023-03-28T07:14:27.930Z,31.10
2023-03-28T07:19:30.998Z,31.00
2023-03-28T07:24:33.868Z,31.10
2023-03-28T07:29:38.824Z,31.20
2023-03-28T07:34:41.813Z,31.50
2023-03-28T07:39:44.816Z,31.70
2023-03-28T07:44:48.957Z,31.90
2023-03-28T07:49:52.437Z,32.00
2023-03-28T07:54:55.315Z,31.90
2023-03-28T07:59:59.447Z,31.60
2023-03-28T08:05:02.325Z,31.50
2023-03-28T08:10:06.114Z,31.50
2023-03-28T08:15:11.385Z,31.50
2023-03-28T08:20:14.596Z,31.50
2023-03-28T08:25:17.540Z,31.60
2023-03-28T08:30:21.831Z,31.60
2023-03-28T08:35:24.872Z,31.70
2023-03-28T08:40:30.135Z,31.70
2023-03-28T08:45:43.684Z,31.80
2023-03-28T08:50:49.127Z,31.80
2023-03-28T08:55:53.920Z,31.80
2023-03-28T09:00:58.277Z,31.90
2023-03-28T09:06:08.707Z,31.90
2023-03-28T09:11:24.287Z,31.90
2023-03-28T09:16:38.675Z,32.10
2023-03-28T09:22:02.304Z,32.40
2023-03-28T09:27:25.167Z,32.60
2023-03-28T09:32:34.763Z,32.80
2023-03-28T09:37:41.371Z,32.80
2023-03-28T09:42:52.804Z,32.70
2023-03-28T09:47:58.102Z,32.70
2023-03-28T09:53:02.016Z,32.60
2023-03-28T09:58:08.050Z,32.50
2023-03-28T10:03:23.200Z,32.60
2023-03-28T10:08:32.533Z,32.70
2023-03-28T10:13:40.614Z,32.80
2023-03-28T10:18:44.850Z,32.90
2023-03-28T10:23:59.216Z,32.90
2023-03-28T10:29:04.777Z,33.10
2023-03-28T10:34:26.752Z,33.20
2023-03-28T10:39:32.169Z,33.30
2023-03-28T10:44:36.813Z,33.40
2023-03-28T10:49:45.931Z,33.50
2023-03-28T10:55:03.482Z,33.60
2023-03-28T11:00:12.794Z,33.70
2023-03-28T11:05:28.876Z,33.90
2023-03-28T11:10:43.965Z,34.60
2023-03-28T11:15:57.667Z,34.00
2023-03-28T11:21:16.604Z,34.20
2023-03-28T11:26:26.805Z,34.30
2023-03-28T11:31:36.297Z,34.40
2023-03-28T11:36:48.718Z,34.00
2023-03-28T11:41:52.696Z,34.10
2023-03-28T11:46:58.733Z,34.40
2023-03-28T11:52:11.214Z,34.50
2023-03-28T11:57:21.736Z,34.30
2023-03-28T12:02:38.533Z,34.50
2023-03-28T12:07:49.277Z,34.80
2023-03-28T12:13:02.732Z,34.90
2023-03-28T12:18:11.478Z,35.00
2023-03-28T12:23:22.318Z,35.00
2023-03-28T12:28:29.297Z,35.10
2023-03-28T12:33:46.806Z,35.10
2023-03-28T12:38:57.720Z,35.40
2023-03-28T12:44:05.039Z,35.30
2023-03-28T12:49:13.873Z,35.40
2023-03-28T12:54:30.257Z,35.60
2023-03-28T12:59:58.771Z,35.60
2023-03-28T13:05:10.850Z,35.70
2023-03-28T13:10:24.070Z,35.40
2023-03-28T13:15:31.008Z,35.30
2023-03-28T13:20:33.873Z,35.30
2023-03-28T13:25:39.065Z,35.20
2023-03-28T13:30:43.633Z,35.20
2023-03-28T13:35:48.904Z,35.40
2023-03-28T13:40:55.876Z,35.30
2023-03-28T13:46:02.875Z,35.30
2023-03-28T13:51:09.251Z,35.30
2023-03-28T13:56:24.261Z,35.40
2023-03-28T14:01:34.700Z,35.40
2023-03-28T14:06:41.814Z,35.40
2023-03-28T14:11:46.607Z,35.40
2023-03-28T14:16:49.525Z,35.50
2023-03-28T14:21:53.557Z,35.50
2023-03-28T14:27:10.165Z,35.50
2023-03-28T14:32:25.671Z,35.50
2023-03-28T14:37:29.854Z,35.50
2023-03-28T14:42:34.127Z,35.50
2023-03-28T14:47:37.336Z,35.50
2023-03-28T14:52:44.476Z,35.60
2023-03-28T14:57:51.645Z,36.00
2023-03-28T15:02:55.741Z,29.80
2023-03-28T15:08:02.182Z,32.40
2023-03-28T15:13:12.676Z,32.40
2023-03-28T15:18:19.141Z,32.70
2023-03-28T15:23:27.029Z,32.90
2023-03-28T15:28:32.071Z,33.10
2023-03-28T15:33:35.910Z,33.30
2023-03-28T15:38:40.158Z,33.40
2023-03-28T15:43:58.741Z,33.50
2023-03-28T15:49:04.612Z,33.60
2023-03-28T15:54:09.356Z,33.70
2023-03-28T15:59:26.176Z,33.80
2023-03-28T16:04:29.586Z,33.80
2023-03-28T16:09:34.849Z,33.80
2023-03-28T16:14:48.762Z,33.80
2023-03-28T16:19:51.862Z,33.80
2023-03-28T16:24:55.675Z,33.70
2023-03-28T16:29:59.837Z,33.80
2023-03-28T16:35:02.747Z,33.80
2023-03-28T16:40:06.660Z,33.90
2023-03-28T16:45:13.052Z,34.00
2023-03-28T16:50:17.072Z,34.00
2023-03-28T16:55:20.399Z,34.10
2023-03-28T17:00:25.037Z,34.10
2023-03-28T17:05:27.866Z,34.10
2023-03-28T17:10:30.919Z,34.60
2023-03-28T17:15:35.523Z,34.60
2023-03-28T17:20:38.412Z,34.70
2023-03-28T17:25:53.850Z,34.30
2023-03-28T17:30:58.838Z,33.50
2023-03-28T17:36:12.277Z,33.20
2023-03-28T17:41:15.386Z,33.10
2023-03-28T17:46:20.182Z,33.00
2023-03-28T17:51:23.128Z,32.90
2023-03-28T17:56:26.240Z,32.70
2023-03-28T18:01:30.965Z,32.60
2023-03-28T18:06:34.276Z,32.50
2023-03-28T18:11:39.066Z,32.40
2023-03-28T18:16:44.887Z,32.30
2023-03-28T18:21:48.019Z,32.40
2023-03-28T18:26:51.092Z,32.10
2023-03-28T18:31:55.266Z,31.90
2023-03-28T18:37:00.189Z,31.70
2023-03-28T18:42:04.184Z,32.10
2023-03-28T18:47:08.546Z,32.10
2023-03-28T18:52:11.391Z,32.10
2023-03-28T18:57:15.018Z,32.10
2023-03-28T19:02:20.239Z,32.20
2023-03-28T19:07:23.401Z,31.90
2023-03-28T19:12:27.001Z,32.00
2023-03-28T19:17:31.906Z,31.80
2023-03-28T19:22:35.066Z,31.70
2023-03-28T19:27:38.453Z,31.70
2023-03-28T19:32:42.644Z,31.70
2023-03-28T19:37:45.516Z,31.60
2023-03-28T19:42:48.343Z,32.00
2023-03-28T19:47:52.654Z,31.90
2023-03-28T19:52:55.733Z,32.10
2023-03-28T19:57:58.605Z,32.10
2023-03-28T20:03:03.212Z,31.90
2023-03-28T20:08:08.650Z,31.80
2023-03-28T20:13:12.302Z,31.70
2023-03-28T20:18:19.721Z,31.70
2023-03-28T20:23:24.602Z,31.50
2023-03-28T20:28:31.844Z,31.70
2023-03-28T20:33:38.277Z,31.60
2023-03-28T20:38:41.391Z,31.60
2023-03-28T20:43:47.738Z,31.60
2023-03-28T20:48:54.548Z,31.70
2023-03-28T20:53:59.611Z,32.00
2023-03-28T20:59:04.285Z,31.30
2023-03-28T21:04:08.658Z,31.70
2023-03-28T21:09:15.249Z,31.30
2023-03-28T21:14:18.205Z,31.40
2023-03-28T21:19:22.526Z,31.30
2023-03-28T21:24:25.357Z,30.60
2023-03-28T21:29:28.637Z,31.00
2023-03-28T21:34:33.373Z,31.10
2023-03-28T21:39:36.278Z,31.10
2023-03-28T21:44:39.113Z,31.30
2023-03-28T21:49:45.974Z,31.30
2023-03-28T21:54:48.842Z,31.00
2023-03-28T21:59:51.767Z,31.00
2023-03-28T22:04:56.122Z,31.30
2023-03-28T22:10:01.135Z,31.30
2023-03-28T22:15:04.608Z,31.60
2023-03-28T22:20:10.181Z,31.50
2023-03-28T22:25:14.609Z,31.40
2023-03-28T22:30:17.496Z,31.30
2023-03-28T22:35:21.657Z,31.30
2023-03-28T22:40:24.560Z,31.40
2023-03-28T22:45:28.561Z,31.50
2023-03-28T22:50:33.665Z,31.60
2023-03-28T22:55:37.104Z,31.50
2023-03-28T23:00:40.065Z,31.70
2023-03-28T23:05:44.638Z,31.70
2023-03-28T23:10:48.078Z,31.70
2023-03-28T23:15:51.008Z,31.70
2023-03-28T23:20:55.195Z,31.70
2023-03-28T23:25:58.278Z,31.70
2023-03-28T23:31:02.294Z,31.80
2023-03-28T23:36:07.972Z,31.80
2023-03-28T23:41:11.198Z,31.80
2023-03-28T23:46:14.155Z,31.80
2023-03-28T23:51:18.553Z,31.80
2023-03-28T23:56:22.132Z,31.90
